Time;durP1;ratioP1;P1;durP2;ratioP2;P2;SDS_P1;SDS_P2;PMS_P1;PMS_P2;Temp;Humidity;BMP_temperature;BMP_pressure;BME280_temperature;BME280_humidity;BME280_pressure;Samples;Min_cycle;Max_cycle;Signal;HPM_P1;HPM_P2
2021/10/02 00:46:11;;;;;;;11.75;8.95;;;;;;;16.27;70.74;101182.78;10506464;28;20048;-81
2021/10/02 00:51:13;;;;;;;11.23;7.05;;;;;;;16.21;71.11;101191.94;10511757;28;20043;-82
2021/10/02 00:56:13;;;;;;;14.38;7.47;;;;;;;16.18;70.19;101154.97;10477877;28;20043;-81
2021/10/02 01:01:16;;;;;;;8.18;6.32;;;;;;;16.07;69.05;101188.50;10489349;28;20036;-81
2021/10/02 01:06:48;;;;;;;7.38;6.63;;;;;;;15.91;69.28;101179.00;10473237;28;20021;-81
2021/10/02 01:11:54;;;;;;;10.48;6.88;;;;;;;15.72;69.53;101139.06;10505866;28;20054;-80
2021/10/02 01:16:57;;;;;;;9.20;6.55;;;;;;;15.82;69.13;101131.19;10486660;28;20490;-81
2021/10/02 01:22:16;;;;;;;16.17;7.00;;;;;;;15.68;69.10;101126.94;10471031;28;20056;-81
2021/10/02 01:27:51;;;;;;;13.10;6.38;;;;;;;15.66;68.30;101154.41;10487203;28;20040;-81
2021/10/02 01:33:06;;;;;;;11.82;7.63;;;;;;;15.58;69.27;101147.38;10505266;28;20025;-81
2021/10/02 01:48:27;;;;;;;10.65;8.23;;;;;;;15.96;69.25;101138.19;10506802;28;20488;-81
2021/10/02 01:53:33;;;;;;;10.38;7.97;;;;;;;15.95;68.80;101128.34;10455546;28;20025;-81
2021/10/02 01:58:34;;;;;;;10.97;8.03;;;;;;;15.65;68.61;101095.44;10491308;28;20045;-81
2021/10/02 02:03:37;;;;;;;15.68;9.77;;;;;;;15.67;68.23;101122.56;10479679;28;20032;-81
2021/10/02 02:08:39;;;;;;;10.88;8.15;;;;;;;15.27;68.65;101071.03;10493754;28;20043;-81
2021/10/02 02:13:40;;;;;;;21.20;9.15;;;;;;;15.53;68.75;101129.97;10480898;28;20037;-81
2021/10/02 02:18:40;;;;;;;8.00;7.22;;;;;;;15.34;68.74;101112.72;10463223;28;20039;-81
2021/10/02 02:23:41;;;;;;;12.23;8.80;;;;;;;15.34;68.72;101121.75;10487161;28;20044;-81
2021/10/02 02:28:41;;;;;;;9.50;8.35;;;;;;;15.33;68.54;101117.38;10508259;28;20048;-81
2021/10/02 02:33:42;;;;;;;9.20;8.30;;;;;;;15.21;68.49;101101.94;10469636;28;20050;-81
2021/10/02 02:38:42;;;;;;;9.85;8.63;;;;;;;14.97;68.58;101068.19;10485049;28;20085;-81
2021/10/02 02:43:43;;;;;;;11.25;10.13;;;;;;;15.18;68.66;101096.94;10502947;28;20055;-81
2021/10/02 02:49:22;;;;;;;14.82;9.52;;;;;;;15.06;67.92;101086.75;10501876;28;20024;-80
2021/10/02 02:54:42;;;;;;;14.82;10.35;;;;;;;14.98;67.60;101094.38;10333426;28;20042;-80
2021/10/02 02:59:46;;;;;;;13.98;9.88;;;;;;;14.93;68.43;101108.66;10447388;28;20055;-81
2021/10/02 03:04:46;;;;;;;15.80;10.07;;;;;;;14.76;67.88;101089.28;10485859;28;20086;-81
2021/10/02 03:09:48;;;;;;;10.90;9.63;;;;;;;13.80;66.81;100961.41;10452146;28;20032;-81
2021/10/02 03:14:48;;;;;;;9.45;7.07;;;;;;;14.04;67.33;101052.38;10471082;28;20475;-80
2021/10/02 03:19:49;;;;;;;13.55;9.48;;;;;;;13.98;67.67;101062.25;10476383;28;20032;-81
2021/10/02 03:24:49;;;;;;;17.02;8.65;;;;;;;14.15;68.60;101101.56;10491600;28;20044;-80
2021/10/02 03:29:50;;;;;;;12.30;8.25;;;;;;;13.91;67.71;101061.44;10490477;28;20380;-81
2021/10/02 03:34:51;;;;;;;8.55;7.25;;;;;;;14.01;67.90;101107.25;10490871;28;20067;-81
2021/10/02 03:39:53;;;;;;;6.97;6.00;;;;;;;13.90;68.10;101093.25;10490778;28;20035;-81
2021/10/02 03:44:54;;;;;;;6.88;5.38;;;;;;;13.96;67.96;101094.31;10473275;28;20044;-81
2021/10/02 03:49:54;;;;;;;8.07;5.22;;;;;;;13.87;67.93;101085.53;10509991;28;20438;-81
2021/10/02 03:54:55;;;;;;;7.05;5.50;;;;;;;13.79;68.17;101071.34;10509996;28;20100;-80
2021/10/02 03:59:55;;;;;;;10.02;5.00;;;;;;;13.09;68.19;100960.38;10509083;28;20047;-81
2021/10/02 04:04:56;;;;;;;8.07;6.68;;;;;;;13.48;68.04;101043.78;10491913;28;20024;-81
2021/10/02 04:09:56;;;;;;;11.38;6.07;;;;;;;13.83;68.08;101086.19;10509418;28;20112;-81
2021/10/02 04:14:57;;;;;;;13.88;5.85;;;;;;;13.91;68.53;101083.22;10491874;28;20090;-80
2021/10/02 04:19:57;;;;;;;6.18;5.68;;;;;;;13.95;67.53;101082.56;10487625;28;20040;-80
2021/10/02 04:24:58;;;;;;;13.38;5.88;;;;;;;13.93;67.60;101073.78;10504804;28;20055;-80
2021/10/02 04:29:58;;;;;;;9.35;5.72;;;;;;;13.94;67.64;101080.06;10490691;28;20376;-80
2021/10/02 04:34:59;;;;;;;6.80;5.22;;;;;;;14.02;68.67;101074.38;10509287;28;20035;-81
2021/10/02 04:39:59;;;;;;;9.98;7.13;;;;;;;13.85;68.41;101025.03;10494326;28;20461;-80
2021/10/02 04:45:00;;;;;;;24.70;10.15;;;;;;;14.05;68.75;101063.06;10493831;28;20148;-81
2021/10/02 04:50:00;;;;;;;19.13;10.50;;;;;;;13.85;69.69;100995.09;10512423;28;20087;-81
2021/10/02 04:55:00;;;;;;;21.52;12.85;;;;;;;14.21;69.46;101022.75;10508926;28;20539;-81
2021/10/02 05:00:02;;;;;;;10.88;9.45;;;;;;;14.41;69.46;101064.31;10491512;28;20040;-81
2021/10/02 05:05:02;;;;;;;12.98;9.25;;;;;;;14.52;68.90;101058.22;10508428;28;20029;-79
2021/10/02 05:10:03;;;;;;;11.80;8.70;;;;;;;14.43;68.52;101064.97;10490723;28;20114;-81
2021/10/02 05:15:04;;;;;;;18.52;10.45;;;;;;;14.35;69.18;101074.22;10509346;28;20047;-81
2021/10/02 05:20:05;;;;;;;21.30;9.82;;;;;;;14.36;69.72;101069.63;10492313;28;20392;-81
2021/10/02 05:25:06;;;;;;;17.17;11.43;;;;;;;14.27;70.02;101077.19;10488742;28;20141;-81
2021/10/02 05:30:07;;;;;;;21.10;10.65;;;;;;;14.39;70.77;101067.28;10505367;28;20032;-80
2021/10/02 05:35:07;;;;;;;17.30;11.00;;;;;;;14.48;70.66;101065.13;10491904;28;20067;-79
2021/10/02 05:40:08;;;;;;;11.45;9.18;;;;;;;13.18;70.72;100806.84;10470902;28;20020;-80
2021/10/02 05:45:09;;;;;;;12.98;9.68;;;;;;;14.76;69.76;101069.38;10504559;28;20476;-81
2021/10/02 05:50:09;;;;;;;15.52;9.05;;;;;;;14.65;69.33;101063.59;10485869;28;20048;-81
2021/10/02 05:55:11;;;;;;;15.73;10.40;;;;;;;14.56;68.69;101064.91;10484814;28;20044;-80
2021/10/02 06:00:12;;;;;;;17.63;8.73;;;;;;;14.48;68.47;101067.00;10485541;28;20032;-80
2021/10/02 06:05:12;;;;;;;17.00;8.57;;;;;;;14.41;68.71;101061.59;10487226;28;20034;-80
2021/10/02 06:10:13;;;;;;;14.07;8.13;;;;;;;14.15;69.47;101052.53;10487326;28;20086;-80
2021/10/02 06:15:13;;;;;;;9.55;6.78;;;;;;;14.29;68.91;101063.34;10486296;28;20119;-80
2021/10/02 06:20:14;;;;;;;11.98;5.95;;;;;;;14.25;69.05;101062.94;10474153;28;20127;-81
2021/10/02 06:25:14;;;;;;;17.58;6.20;;;;;;;14.36;68.66;101067.72;10507411;28;20044;-80
2021/10/02 06:30:15;;;;;;;11.00;6.05;;;;;;;13.43;68.90;100928.50;10502391;28;20078;-81
2021/10/02 06:35:15;;;;;;;15.02;5.53;;;;;;;14.59;68.23;101064.47;10486474;28;20040;-81
2021/10/02 06:40:16;;;;;;;8.43;5.53;;;;;;;14.90;68.64;101051.88;10501687;28;20032;-80
2021/10/02 06:45:16;;;;;;;8.95;5.70;;;;;;;15.43;67.79;101051.34;10502293;28;20056;-80
2021/10/02 06:50:16;;;;;;;12.98;5.93;;;;;;;15.64;68.08;101032.88;10502498;28;20442;-80
2021/10/02 06:55:17;;;;;;;9.77;6.35;;;;;;;15.37;67.57;101038.63;10483750;28;20531;-80
2021/10/02 07:00:17;;;;;;;16.42;7.18;;;;;;;15.26;67.88;101037.47;10504143;28;20063;-80
2021/10/02 07:05:18;;;;;;;7.95;5.15;;;;;;;15.23;67.73;101034.38;10489677;28;20088;-80
2021/10/02 07:10:20;;;;;;;11.52;6.07;;;;;;;15.00;67.40;100996.81;10515566;28;20139;-81
2021/10/02 07:15:21;;;;;;;20.77;6.88;;;;;;;15.17;68.23;101030.63;10479997;28;20024;-80
2021/10/02 07:20:25;;;;;;;13.15;6.38;;;;;;;15.51;67.66;100991.03;10505982;28;20056;-80
2021/10/02 07:25:26;;;;;;;14.48;7.18;;;;;;;15.96;67.26;101011.72;10503457;28;20039;-80
2021/10/02 07:30:26;;;;;;;13.95;6.72;;;;;;;15.63;67.49;101001.16;10484141;28;20040;-79
2021/10/02 07:35:26;;;;;;;5.45;5.00;;;;;;;13.47;67.41;100679.47;10498904;28;20029;-80
2021/10/02 07:40:28;;;;;;;9.18;5.20;;;;;;;15.44;67.35;100978.50;10480736;28;20388;-79
2021/10/02 07:45:29;;;;;;;12.90;6.50;;;;;;;15.90;67.24;101013.47;10496792;28;20151;-79
2021/10/02 07:50:29;;;;;;;10.60;5.00;;;;;;;15.82;67.23;101027.41;10497317;28;20119;-80
2021/10/02 07:55:30;;;;;;;10.43;5.35;;;;;;;16.03;66.71;101015.19;10497521;28;20460;-80
2021/10/02 08:00:30;;;;;;;13.63;5.18;;;;;;;16.00;66.84;100972.78;10481642;28;20124;-80
2021/10/02 08:05:31;;;;;;;9.70;4.38;;;;;;;15.75;66.21;100970.16;10505909;28;20093;-81
2021/10/02 08:10:31;;;;;;;5.25;4.03;;;;;;;15.84;68.19;100860.63;10470880;28;20086;-81
2021/10/02 08:15:31;;;;;;;6.50;3.35;;;;;;;17.09;65.77;100947.03;10470087;28;20123;-81
2021/10/02 08:20:32;;;;;;;5.47;4.00;;;;;;;17.08;64.53;100887.94;10505377;28;20036;-81
2021/10/02 08:25:32;;;;;;;4.25;2.47;;;;;;;17.23;64.26;100866.38;10470288;28;20029;-81
2021/10/02 08:30:33;;;;;;;9.60;3.65;;;;;;;18.24;64.97;100954.31;10487272;28;20036;-82
2021/10/02 08:35:33;;;;;;;3.95;2.97;;;;;;;18.25;63.47;100895.69;10492373;28;20109;-82
2021/10/02 08:40:34;;;;;;;5.95;3.42;;;;;;;19.09;60.45;100977.09;10520382;28;20033;-83
2021/10/02 08:45:34;;;;;;;19.45;5.07;;;;;;;18.83;58.94;100926.50;10502549;28;20056;-83
2021/10/02 08:50:35;;;;;;;9.13;3.90;;;;;;;18.51;58.63;100890.59;10505320;28;20068;-83
2021/10/02 08:55:35;;;;;;;4.72;3.95;;;;;;;17.56;59.38;100815.53;10453253;28;20369;-83
2021/10/02 09:00:36;;;;;;;17.15;5.82;;;;;;;18.06;58.08;100821.09;10486716;28;20039;-84
2021/10/02 09:05:37;;;;;;;8.85;4.35;;;;;;;17.73;56.81;100898.53;10486076;28;20032;-83
2021/10/02 09:10:37;;;;;;;6.95;3.92;;;;;;;17.78;57.75;100925.25;10503830;28;20527;-83
2021/10/02 09:15:37;;;;;;;13.15;4.30;;;;;;;16.64;57.86;100732.44;10504487;28;20068;-83
2021/10/02 09:20:38;;;;;;;7.30;4.68;;;;;;;17.69;58.72;100918.47;10506639;28;20043;-83
2021/10/02 09:25:45;;;;;;;9.73;5.45;;;;;;;17.02;59.35;100914.34;10485687;28;20083;-83
2021/10/02 09:30:45;;;;;;;;;;;;;;;17.25;62.09;100893.47;10503562;28;20033;-83
2021/10/02 09:35:46;;;;;;;7.07;6.33;;;;;;;17.35;60.15;100891.78;10485536;28;19980;-83
2021/10/02 09:40:59;;;;;;;13.38;6.18;;;;;;;17.51;60.11;100871.00;10505691;28;20277;-82
2021/10/02 09:46:00;;;;;;;10.02;7.28;;;;;;;18.01;60.30;100889.50;10518332;28;20079;-82
2021/10/02 09:51:04;;;;;;;17.70;11.45;;;;;;;17.86;60.20;100883.75;10511409;28;20043;-82
2021/10/02 09:56:09;;;;;;;15.15;13.43;;;;;;;18.08;60.39;100876.47;10505946;28;20051;-82
2021/10/02 10:01:24;;;;;;;22.48;15.35;;;;;;;17.57;61.64;100866.47;10502247;28;20129;-83
2021/10/02 10:06:26;;;;;;;22.23;14.43;;;;;;;16.95;61.29;100733.09;10486344;28;20060;-83
2021/10/02 10:11:39;;;;;;;21.40;14.23;;;;;;;17.42;61.81;100851.44;10486327;28;20111;-83
2021/10/02 10:16:39;;;;;;;16.50;14.30;;;;;;;17.51;62.53;100861.97;10485254;28;20115;-82
2021/10/02 10:21:40;;;;;;;14.68;12.05;;;;;;;17.18;62.07;100759.53;10503086;28;20037;-80
2021/10/02 10:26:45;;;;;;;21.67;12.90;;;;;;;17.32;63.33;100812.88;10484514;28;20043;-84
2021/10/02 10:31:57;;;;;;;12.95;10.23;;;;;;;16.49;64.98;100727.47;10500638;28;20131;-83
2021/10/02 10:36:57;;;;;;;17.00;10.43;;;;;;;16.56;63.42;100697.31;10465591;28;20119;-83
2021/10/02 10:41:58;;;;;;;12.85;10.23;;;;;;;17.43;62.98;100801.06;10481737;28;20111;-83
2021/10/02 10:46:58;;;;;;;16.85;9.88;;;;;;;16.55;63.30;100630.00;10465946;28;20052;-83
2021/10/02 10:51:59;;;;;;;25.70;10.05;;;;;;;17.41;63.61;100785.94;10465846;28;20178;-83
2021/10/02 10:57:00;;;;;;;12.75;8.82;;;;;;;17.55;63.27;100759.09;10469868;28;20072;-83
2021/10/02 11:02:00;;;;;;;10.55;8.73;;;;;;;17.69;63.74;100724.84;10364247;28;41741;-83
2021/10/02 11:07:01;;;;;;;16.48;7.28;;;;;;;17.27;64.68;100706.06;10497177;28;20594;-83
2021/10/02 11:12:02;;;;;;;11.55;5.00;;;;;;;18.23;62.28;100781.88;10478197;28;20033;-83
2021/10/02 11:17:03;;;;;;;11.35;4.53;;;;;;;17.98;63.30;100757.66;10481036;28;20461;-83
2021/10/02 11:22:30;;;;;;;10.48;4.88;;;;;;;17.72;62.16;100682.44;10481227;28;20094;-83
2021/10/02 11:27:30;;;;;;;5.90;2.92;;;;;;;18.78;59.88;100724.22;10482502;28;20082;-83
2021/10/02 11:32:34;;;;;;;7.30;3.92;;;;;;;18.42;61.06;100709.22;10480666;28;20511;-83
2021/10/02 11:37:41;;;;;;;6.50;3.83;;;;;;;18.06;61.14;100703.25;10487686;28;20039;-83
2021/10/02 11:42:41;;;;;;;14.77;4.57;;;;;;;18.36;61.37;100680.91;10500486;28;20064;-83
2021/10/02 11:47:46;;;;;;;7.15;4.13;;;;;;;18.38;59.48;100649.66;10489178;28;20498;-83
2021/10/02 11:52:47;;;;;;;6.43;2.85;;;;;;;18.57;58.66;100642.78;10495340;28;20169;-83
2021/10/02 11:58:09;;;;;;;4.20;3.35;;;;;;;18.70;58.89;100631.41;10503632;28;20131;-84
2021/10/02 12:03:10;;;;;;;4.18;3.58;;;;;;;19.16;61.06;100582.47;10504163;28;20025;-83
2021/10/02 12:08:11;;;;;;;9.55;4.18;;;;;;;18.22;59.68;100621.22;10494099;28;20037;-82
2021/10/02 12:13:22;;;;;;;6.57;3.10;;;;;;;17.68;61.81;100627.34;10491103;28;20040;-81
2021/10/02 12:18:22;;;;;;;7.93;4.75;;;;;;;18.08;60.89;100596.94;10493359;28;20093;-82
2021/10/02 12:23:22;;;;;;;6.60;4.32;;;;;;;17.36;61.99;100547.75;10508412;28;20125;-82
2021/10/02 12:28:23;;;;;;;7.78;4.78;;;;;;;17.29;63.73;100579.91;10506387;28;20147;-81
2021/10/02 12:33:23;;;;;;;9.73;5.57;;;;;;;16.28;65.52;100520.47;10489858;28;20036;-82
2021/10/02 12:38:24;;;;;;;8.80;5.55;;;;;;;16.26;66.87;100528.06;10489005;28;20032;-83
2021/10/02 12:43:24;;;;;;;7.93;5.68;;;;;;;16.23;67.97;100534.84;10502677;28;20496;-83
2021/10/02 12:48:25;;;;;;;12.52;6.05;;;;;;;15.49;68.14;100381.84;10503442;28;20127;-83
2021/10/02 12:53:26;;;;;;;9.30;6.80;;;;;;;15.92;70.15;100538.03;10503823;28;20040;-83
2021/10/02 12:58:26;;;;;;;10.10;6.00;;;;;;;16.14;69.83;100511.72;10485956;28;20085;-83
2021/10/02 13:03:28;;;;;;;15.35;7.28;;;;;;;16.28;69.92;100476.75;10504608;28;20047;-83
2021/10/02 13:08:29;;;;;;;9.25;7.38;;;;;;;16.58;69.90;100509.25;10501379;28;20055;-83
2021/10/02 13:13:29;;;;;;;7.90;5.57;;;;;;;16.07;71.19;100489.19;10503315;28;20035;-84
2021/10/02 13:18:31;;;;;;;7.45;6.35;;;;;;;16.38;70.06;100485.13;10501630;28;20047;-83
2021/10/02 13:23:39;;;;;;;16.88;7.20;;;;;;;15.74;70.84;100414.28;10501945;28;20032;-83
2021/10/02 13:28:48;;;;;;;9.32;5.97;;;;;;;16.15;70.86;100449.75;10504294;28;20111;-83
2021/10/02 13:33:56;;;;;;;8.50;6.63;;;;;;;15.70;73.25;100465.00;10473368;28;20037;-83
2021/10/02 13:39:11;;;;;;;7.00;5.05;;;;;;;15.69;73.16;100457.03;10460065;28;20504;-82
2021/10/02 13:44:23;;;;;;;10.30;6.20;;;;;;;13.87;74.42;100183.75;10459034;28;20495;-82
2021/10/02 13:49:24;;;;;;;7.45;5.20;;;;;;;14.93;72.98;100293.41;10441368;28;20036;-82
2021/10/02 13:54:25;;;;;;;7.47;5.40;;;;;;;15.81;72.63;100417.69;10459023;28;20063;-83
2021/10/02 13:59:25;;;;;;;6.05;4.93;;;;;;;15.47;72.47;100329.41;10461714;28;20044;-83
2021/10/02 14:04:26;;;;;;;7.15;4.18;;;;;;;15.26;74.21;100335.56;10500807;28;20476;-83
2021/10/02 14:09:27;;;;;;;14.73;6.88;;;;;;;15.44;74.20;100389.91;10483095;28;20056;-83
2021/10/02 14:14:27;;;;;;;8.68;6.70;;;;;;;15.73;73.74;100362.66;10483386;28;20064;-84
2021/10/02 14:19:28;;;;;;;10.18;5.47;;;;;;;15.40;75.10;100344.28;10500533;28;20063;-84
2021/10/02 14:24:28;;;;;;;6.68;6.00;;;;;;;15.50;74.18;100334.38;10500058;28;20036;-83
2021/10/02 14:29:29;;;;;;;11.40;6.40;;;;;;;15.35;74.86;100323.19;10482231;28;20033;-84
2021/10/02 14:34:29;;;;;;;12.32;6.68;;;;;;;15.21;75.92;100305.44;10483047;28;20063;-83
2021/10/02 14:39:30;;;;;;;8.63;5.75;;;;;;;15.51;74.66;100297.84;10483106;28;20105;-83
2021/10/02 14:44:30;;;;;;;16.90;5.53;;;;;;;15.44;74.73;100282.69;10499644;28;20080;-83
2021/10/02 14:49:31;;;;;;;10.65;5.75;;;;;;;15.34;75.11;100281.41;10501033;28;20033;-83
2021/10/02 14:54:33;;;;;;;11.20;4.78;;;;;;;15.44;74.63;100248.03;10499557;28;20048;-82
2021/10/02 14:59:34;;;;;;;4.93;4.50;;;;;;;15.49;74.28;100218.13;10498290;28;20044;-83
2021/10/02 15:04:38;;;;;;;11.15;4.10;;;;;;;15.38;74.81;100210.00;10464892;28;20033;-83
2021/10/02 15:09:38;;;;;;;4.35;3.92;;;;;;;15.29;75.42;100201.41;10499543;28;20067;-83
2021/10/02 15:14:39;;;;;;;7.43;4.57;;;;;;;14.88;74.30;100095.16;10499488;28;20028;-83
2021/10/02 15:19:39;;;;;;;7.03;3.85;;;;;;;15.51;74.42;100164.13;10482292;28;20477;-83
2021/10/02 15:24:46;;;;;;;19.13;3.47;;;;;;;15.13;75.22;100132.13;10498093;28;20043;-83
2021/10/02 15:29:47;;;;;;;7.28;3.60;;;;;;;15.19;75.06;100119.38;10499101;28;20048;-83
2021/10/02 15:34:47;;;;;;;9.15;4.05;;;;;;;15.28;75.21;100123.34;10498253;28;20043;-83
2021/10/02 15:39:49;;;;;;;2.42;2.20;;;;;;;15.07;75.21;100063.03;10481109;28;20028;-83
2021/10/02 15:44:50;;;;;;;7.50;2.83;;;;;;;15.16;74.61;100073.53;10496897;28;20128;-83
2021/10/02 15:49:51;;;;;;;4.80;2.47;;;;;;;14.97;74.46;100073.78;10480654;28;20422;-83
2021/10/02 15:54:52;;;;;;;6.20;2.15;;;;;;;14.92;74.83;100013.69;10479242;28;20057;-83
2021/10/02 16:00:12;;;;;;;2.83;2.63;;;;;;;14.81;73.45;99981.91;10497504;28;20059;-82
2021/10/02 16:05:13;;;;;;;4.22;2.42;;;;;;;14.93;73.00;100012.63;10497966;28;20033;-83
2021/10/02 16:10:16;;;;;;;14.35;2.30;;;;;;;13.86;73.06;99831.03;10498349;28;20400;-83
2021/10/02 16:15:17;;;;;;;7.82;2.63;;;;;;;14.59;73.62;99990.81;10497364;28;20476;-83
2021/10/02 16:20:17;;;;;;;20.20;2.30;;;;;;;14.69;72.63;99990.16;10495450;28;20032;-83
2021/10/02 16:25:18;;;;;;;3.50;2.00;;;;;;;14.55;72.40;99991.53;10485751;28;20078;-82
2021/10/02 16:30:19;;;;;;;4.20;2.47;;;;;;;13.61;74.28;99856.69;10503530;28;20039;-83
2021/10/02 16:35:19;;;;;;;7.72;3.13;;;;;;;14.03;73.69;99863.69;10487240;28;20041;-83
2021/10/02 16:40:20;;;;;;;3.25;2.33;;;;;;;13.63;74.08;99827.34;10504896;28;20113;-83
2021/10/02 16:45:22;;;;;;;3.05;1.77;;;;;;;13.43;74.71;99821.50;10504915;28;20056;-83
2021/10/02 16:50:31;;;;;;;9.40;2.33;;;;;;;13.18;74.39;99697.63;10487236;28;20044;-83
2021/10/02 16:55:32;;;;;;;2.70;1.60;;;;;;;14.17;74.75;99895.81;10504645;28;20079;-83
2021/10/02 17:00:32;;;;;;;4.13;2.17;;;;;;;13.99;75.79;99854.38;10485978;28;20463;-83
2021/10/02 17:05:33;;;;;;;18.25;3.70;;;;;;;13.63;76.90;99812.94;10484714;28;20028;-83
2021/10/02 17:10:33;;;;;;;2.08;1.75;;;;;;;13.76;77.20;99836.28;10502553;28;20452;-83
2021/10/02 17:15:34;;;;;;;4.97;2.88;;;;;;;14.07;76.62;99804.97;10484655;28;20046;-83
2021/10/02 17:20:34;;;;;;;3.70;3.13;;;;;;;12.99;78.23;99669.81;10502828;28;20044;-82
2021/10/02 17:25:35;;;;;;;3.92;2.20;;;;;;;13.72;79.14;99747.00;10502195;28;20150;-83
2021/10/02 17:30:36;;;;;;;10.00;3.45;;;;;;;13.76;79.72;99743.78;10487410;28;20036;-83
2021/10/02 17:35:36;;;;;;;4.10;2.80;;;;;;;12.99;80.36;99617.34;10503719;28;20044;-82
2021/10/02 17:40:37;;;;;;;8.02;3.35;;;;;;;13.67;81.21;99710.72;10515043;28;20044;-82
2021/10/02 17:45:37;;;;;;;5.65;3.33;;;;;;;13.91;80.65;99705.91;10518180;28;20401;-81
2021/10/02 17:50:38;;;;;;;5.90;2.50;;;;;;;13.92;80.56;99680.38;10513049;28;20068;-82
2021/10/02 17:55:40;;;;;;;7.03;3.70;;;;;;;13.63;81.53;99638.84;10476987;28;20502;-82
2021/10/02 18:00:40;;;;;;;4.95;3.28;;;;;;;13.77;82.01;99651.00;10516273;28;20077;-83
2021/10/02 18:05:42;;;;;;;6.38;2.72;;;;;;;14.05;81.57;99606.50;10512206;28;20048;-83
2021/10/02 18:10:43;;;;;;;1.83;1.73;;;;;;;14.05;82.27;99587.47;10508356;28;20036;-82
2021/10/02 18:15:43;;;;;;;9.18;4.57;;;;;;;14.19;81.42;99553.31;10503553;28;20120;-83
2021/10/02 18:20:43;;;;;;;2.00;1.90;;;;;;;14.12;82.48;99549.97;10483007;28;20032;-83
2021/10/02 18:30:52;;;;;;;2.97;2.67;;;;;;;14.37;81.67;99516.78;10499196;28;20361;-82
2021/10/02 18:35:53;;;;;;;3.33;3.03;;;;;;;14.28;82.28;99480.19;10500481;28;20036;-83
2021/10/02 18:40:53;;;;;;;4.05;2.80;;;;;;;14.13;82.84;99461.78;10482433;28;20468;-83
2021/10/02 18:45:53;;;;;;;8.50;3.80;;;;;;;14.25;82.91;99474.44;10498994;28;20518;-83
2021/10/02 18:50:54;;;;;;;10.10;3.60;;;;;;;14.08;82.68;99390.16;10499767;28;20119;-83
2021/10/02 18:55:54;;;;;;;2.67;2.47;;;;;;;14.39;83.31;99441.09;10496951;28;20492;-83
2021/10/02 19:00:55;;;;;;;2.97;2.78;;;;;;;14.33;84.56;99450.28;10498940;28;20047;-83
2021/10/02 19:05:55;;;;;;;6.53;3.22;;;;;;;13.85;84.34;99353.19;10498777;28;20040;-83
2021/10/02 19:10:55;;;;;;;3.35;3.05;;;;;;;14.52;84.23;99425.44;10497876;28;20040;-83
2021/10/02 19:15:56;;;;;;;2.45;2.28;;;;;;;14.38;84.38;99414.91;10481635;28;20480;-84
2021/10/02 19:20:57;;;;;;;4.32;3.70;;;;;;;14.73;84.33;99390.97;10499024;28;20078;-84
2021/10/02 19:26:00;;;;;;;2.85;2.55;;;;;;;14.85;84.49;99395.16;10498598;28;20032;-83
2021/10/02 19:31:00;;;;;;;5.70;3.55;;;;;;;14.75;84.58;99400.53;10499116;28;20036;-84
2021/10/02 19:36:04;;;;;;;4.70;3.17;;;;;;;14.99;84.03;99373.69;10498287;28;20472;-84
2021/10/02 19:41:10;;;;;;;3.13;2.83;;;;;;;14.99;84.00;99353.81;10481365;28;20028;-84
2021/10/02 19:46:12;;;;;;;2.38;2.17;;;;;;;14.96;84.29;99338.78;10481335;28;20048;-84
2021/10/02 19:51:12;;;;;;;3.88;3.40;;;;;;;14.98;83.90;99314.81;10497642;28;20044;-85
2021/10/02 19:56:13;;;;;;;3.65;3.28;;;;;;;15.02;85.04;99320.56;10499347;28;20506;-85
2021/10/02 20:01:13;;;;;;;2.40;2.20;;;;;;;15.41;83.95;99321.00;10505759;28;20480;-86
2021/10/02 20:06:14;;;;;;;5.05;3.42;;;;;;;15.45;83.08;99283.91;10488686;28;20032;-85
2021/10/02 20:11:16;;;;;;;2.67;2.47;;;;;;;15.38;83.94;99332.47;10506928;28;20028;-85
2021/10/02 20:16:16;;;;;;;3.63;2.42;;;;;;;15.44;84.58;99309.53;10489059;28;20600;-85
2021/10/02 20:21:17;;;;;;;2.30;2.10;;;;;;;15.60;84.35;99302.22;10507316;28;20120;-84
2021/10/02 20:26:17;;;;;;;4.75;3.10;;;;;;;15.74;83.73;99273.34;10505598;28;20037;-84
2021/10/02 20:31:17;;;;;;;2.65;2.45;;;;;;;16.06;82.57;99290.56;10506874;28;20028;-84
2021/10/02 20:36:18;;;;;;;2.13;1.90;;;;;;;16.05;82.56;99287.03;10505933;28;20032;-85
2021/10/02 20:41:18;;;;;;;4.35;2.47;;;;;;;16.06;83.21;99266.00;10505377;28;20127;-84
2021/10/02 20:46:18;;;;;;;2.10;1.92;;;;;;;16.04;83.25;99296.28;10504290;28;20040;-84
2021/10/02 20:51:19;;;;;;;2.53;2.33;;;;;;;15.96;81.75;99191.19;10506133;28;20091;-85
2021/10/02 20:56:21;;;;;;;2.95;2.13;;;;;;;16.22;81.98;99254.78;10503565;28;20548;-85
2021/10/02 21:01:22;;;;;;;2.10;2.00;;;;;;;16.16;82.79;99241.41;10505684;28;20033;-84
2021/10/02 21:06:22;;;;;;;3.05;2.40;;;;;;;16.52;81.15;99210.19;10504037;28;20060;-83
2021/10/02 21:11:24;;;;;;;9.15;2.88;;;;;;;16.46;81.04;99205.84;10485325;28;20094;-83
2021/10/02 21:16:25;;;;;;;1.75;1.65;;;;;;;16.46;80.41;99170.34;10486660;28;20031;-84
2021/10/02 21:21:25;;;;;;;5.28;1.80;;;;;;;16.61;80.53;99157.69;10486535;28;20033;-84
2021/10/02 21:26:26;;;;;;;2.00;1.83;;;;;;;17.13;79.32;99222.00;10502325;28;20037;-83
2021/10/02 21:31:26;;;;;;;2.58;1.40;;;;;;;17.16;79.20;99207.75;10485209;28;20032;-84
2021/10/02 21:36:27;;;;;;;1.67;1.50;;;;;;;16.81;80.27;99186.88;10503255;28;20032;-84
2021/10/02 21:41:27;;;;;;;1.50;1.40;;;;;;;17.16;79.99;99216.78;10485044;28;20033;-83
2021/10/02 21:46:28;;;;;;;1.52;1.42;;;;;;;17.19;79.52;99190.78;10502044;28;20049;-83
2021/10/02 21:51:31;;;;;;;2.35;2.10;;;;;;;17.47;79.14;99229.47;10483901;28;20132;-83
2021/10/02 21:56:32;;;;;;;4.38;1.98;;;;;;;16.88;78.97;99122.59;10499580;28;20086;-82
2021/10/02 22:01:34;;;;;;;2.28;1.67;;;;;;;17.70;77.94;99200.53;10483698;28;20081;-82
2021/10/02 22:06:38;;;;;;;1.23;1.13;;;;;;;17.68;77.90;99222.75;10499690;28;20040;-83
2021/10/02 22:11:38;;;;;;;1.45;1.00;;;;;;;17.82;77.99;99225.69;10500968;28;20048;-83
2021/10/02 22:16:39;;;;;;;1.85;1.75;;;;;;;17.42;77.89;99165.47;10499765;28;20039;-83
2021/10/02 22:21:40;;;;;;;1.50;1.40;;;;;;;17.69;78.80;99223.56;10499462;28;20475;-82
2021/10/02 22:26:43;;;;;;;0.90;0.90;;;;;;;17.54;78.14;99176.03;10499827;28;20039;-82
2021/10/02 22:31:44;;;;;;;2.20;1.27;;;;;;;17.82;78.79;99212.78;10499805;28;20462;-83
2021/10/02 22:36:45;;;;;;;2.15;1.10;;;;;;;17.89;78.85;99213.28;10482226;28;20123;-83
2021/10/02 22:41:46;;;;;;;1.13;1.13;;;;;;;17.67;78.03;99164.41;10499334;28;20041;-83
2021/10/02 22:46:48;;;;;;;1.17;1.10;;;;;;;17.80;79.09;99214.19;10499385;28;20051;-83
2021/10/02 22:51:49;;;;;;;1.63;1.52;;;;;;;17.99;78.32;99215.09;10499408;28;20036;-82
2021/10/02 22:56:50;;;;;;;1.45;1.20;;;;;;;18.33;76.95;99217.81;10498693;28;20041;-82
2021/10/02 23:01:50;;;;;;;1.27;1.20;;;;;;;18.03;77.25;99179.78;10498814;28;20036;-83
2021/10/02 23:06:51;;;;;;;2.15;1.30;;;;;;;18.18;77.46;99245.34;10498290;28;20044;-82
2021/10/02 23:11:52;;;;;;;1.38;1.27;;;;;;;18.13;77.81;99257.19;10498400;28;20047;-83
2021/10/02 23:16:58;;;;;;;1.88;1.10;;;;;;;18.33;77.42;99258.91;10498839;28;20136;-83
2021/10/02 23:22:00;;;;;;;1.30;1.20;;;;;;;18.44;77.00;99269.75;10481515;28;20028;-83
2021/10/02 23:27:07;;;;;;;1.38;1.30;;;;;;;18.47;77.41;99272.75;10479735;28;20541;-83
2021/10/02 23:32:12;;;;;;;6.35;1.55;;;;;;;18.41;76.73;99264.84;10501954;28;20097;-83
2021/10/02 23:37:13;;;;;;;1.45;1.35;;;;;;;18.66;76.27;99274.75;10506141;28;20036;-83
2021/10/02 23:42:14;;;;;;;3.28;2.08;;;;;;;18.51;76.40;99251.06;10506214;28;20033;-82
2021/10/02 23:47:15;;;;;;;2.65;1.95;;;;;;;18.64;76.36;99274.25;10488868;28;20045;-83
2021/10/02 23:52:15;;;;;;;2.33;2.13;;;;;;;18.60;76.18;99284.94;10487798;28;20037;-82
2021/10/02 23:57:17;;;;;;;1.13;1.13;;;;;;;18.64;74.85;99266.81;10504228;28;20032;-82
